Time;durP1;ratioP1;P1;durP2;ratioP2;P2;SDS_P1;SDS_P2;PMS_P1;PMS_P2;Temp;Humidity;BMP_temperature;BMP_pressure;BME280_temperature;BME280_humidity;BME280_pressure;Samples;Min_cycle;Max_cycle;Signal;HPM_P1;HPM_P2
2024/01/26 00:01:09;;;;;;;11.23;1.77;;;4.40;99.90;;;;;;5001864;28;19909;-78
2024/01/26 00:03:35;;;;;;;8.50;1.80;;;4.50;99.90;;;;;;5201308;23;20053;-79
2024/01/26 00:06:00;;;;;;;;;;;5.10;99.90;;;;;;5028055;28;20029;-80
2024/01/26 00:08:26;;;;;;;9.48;1.73;;;4.60;99.90;;;;;;5027232;28;19905;-79
2024/01/26 00:10:53;;;;;;;;;;;5.60;99.90;;;;;;5052747;28;20053;-80
2024/01/26 00:13:18;;;;;;;9.25;1.73;;;4.70;99.90;;;;;;5048559;28;19905;-79
2024/01/26 00:15:45;;;;;;;;;;;4.50;99.90;;;;;;5043389;28;20117;-80
2024/01/26 00:18:11;;;;;;;12.00;2.50;;;3.80;99.90;;;;;;5024828;28;19963;-78
2024/01/26 00:20:37;;;;;;;;;;;4.50;99.90;;;;;;5025065;28;20033;-79
2024/01/26 00:23:03;;;;;;;10.25;1.60;;;4.40;99.90;;;;;;5041947;28;19928;-78
2024/01/26 00:25:29;;;;;;;;;;;4.50;99.90;;;;;;5027000;28;20037;-79
2024/01/26 00:27:54;;;;;;;10.63;1.92;;;4.70;99.90;;;;;;5026328;28;19905;-79
2024/01/26 00:30:20;;;;;;;;;;;4.50;99.90;;;;;;5026822;28;20025;-79
2024/01/26 00:32:45;;;;;;;15.75;2.85;;;4.50;99.90;;;;;;5043925;28;19944;-79
2024/01/26 00:35:11;;;;;;;;;;;4.50;99.90;;;;;;5027458;28;20049;-79
2024/01/26 00:37:37;;;;;;;14.90;1.63;;;5.20;99.90;;;;;;5027525;28;19947;-78
2024/01/26 00:40:03;;;;;;;;;;;4.40;99.90;;;;;;5028226;28;20028;-80
2024/01/26 00:42:28;;;;;;;12.50;2.22;;;4.50;99.90;;;;;;5045104;28;19905;-78
2024/01/26 00:44:54;;;;;;;;;;;4.30;99.90;;;;;;5046408;28;20072;-79
2024/01/26 00:47:20;;;;;;;7.20;1.48;;;4.60;99.90;;;;;;5045276;28;19911;-77
2024/01/26 00:49:45;;;;;;;;;;;4.20;99.90;;;;;;5046101;28;20052;-77
2024/01/26 00:52:11;;;;;;;7.28;1.23;;;4.20;99.90;;;;;;5044503;28;19940;-77
2024/01/26 00:54:37;;;;;;;;;;;4.20;99.90;;;;;;5026857;28;20033;-77
2024/01/26 00:57:04;;;;;;;10.07;1.25;;;4.20;99.90;;;;;;5027329;28;19917;-78
2024/01/26 00:59:30;;;;;;;11.20;1.70;;;4.10;99.90;;;;;;5045816;28;20049;-77
2024/01/26 01:01:57;;;;;;;8.32;2.00;;;4.10;99.90;;;;;;5043629;28;20022;-78
2024/01/26 01:04:24;;;;;;;10.55;1.42;;;4.20;99.90;;;;;;5008426;28;20068;-78
2024/01/26 01:06:52;;;;;;;14.55;2.10;;;4.10;99.90;;;;;;5008958;28;20044;-77
2024/01/26 01:09:18;;;;;;;18.00;2.60;;;4.70;99.90;;;;;;5025705;28;20069;-77
2024/01/26 01:11:43;;;;;;;;;;;4.40;99.90;;;;;;5025990;28;20548;-78
2024/01/26 01:14:09;;;;;;;12.38;1.70;;;4.40;99.90;;;;;;5006510;28;19906;-77
2024/01/26 01:16:35;;;;;;;;;;;4.20;99.90;;;;;;5006040;28;20034;-77
2024/01/26 01:19:00;;;;;;;11.93;1.65;;;4.10;99.90;;;;;;5023095;28;19909;-77
2024/01/26 01:21:26;;;;;;;;;;;4.10;99.90;;;;;;5007299;28;20053;-77
2024/01/26 01:23:52;;;;;;;11.35;2.00;;;3.60;99.90;;;;;;5026324;28;19905;-77
2024/01/26 01:26:18;;;;;;;;;;;4.10;99.90;;;;;;5022962;28;20033;-77
2024/01/26 01:28:43;;;;;;;9.30;2.38;;;4.40;99.90;;;;;;5004220;28;20293;-77
2024/01/26 01:31:10;;;;;;;;;;;4.10;99.90;;;;;;5024380;28;20033;-78
2024/01/26 01:33:36;;;;;;;11.13;1.10;;;4.10;99.90;;;;;;5005637;28;19905;-78
2024/01/26 01:36:01;;;;;;;;;;;4.10;99.90;;;;;;5023869;28;20036;-80
2024/01/26 01:38:27;;;;;;;7.40;1.25;;;4.20;99.90;;;;;;5006059;28;19913;-77
2024/01/26 01:40:53;;;;;;;;;;;4.30;99.90;;;;;;5026544;28;20022;-78
2024/01/26 01:43:18;;;;;;;9.10;1.00;;;4.30;99.90;;;;;;5008477;28;19905;-77
2024/01/26 01:45:44;;;;;;;;;;;4.30;99.90;;;;;;5008499;28;20102;-78
2024/01/26 01:48:10;;;;;;;12.48;1.40;;;4.30;99.90;;;;;;5023175;28;20321;-77
2024/01/26 01:50:35;;;;;;;;;;;4.10;99.90;;;;;;5007471;28;20513;-77
2024/01/26 01:53:04;;;;;;;6.55;1.10;;;4.20;99.90;;;;;;5025455;28;20424;-78
2024/01/26 01:55:29;;;;;;;12.27;2.20;;;4.10;99.90;;;;;;5010584;28;20026;-78
2024/01/26 01:57:56;;;;;;;;;;;4.20;99.90;;;;;;5011176;28;20046;-78
2024/01/26 02:00:22;;;;;;;7.47;1.45;;;4.20;99.90;;;;;;5011899;28;19933;-78
2024/01/26 02:02:48;;;;;;;;;;;4.10;99.90;;;;;;5011647;28;20050;-78
2024/01/26 02:05:15;;;;;;;8.45;2.55;;;4.10;99.90;;;;;;5011749;28;19935;-78
2024/01/26 02:07:41;;;;;;;14.77;3.95;;;4.00;99.90;;;;;;5029390;28;20048;-78
2024/01/26 02:10:07;;;;;;;16.85;3.78;;;4.00;99.90;;;;;;5029244;28;20040;-78
2024/01/26 02:12:36;;;;;;;11.82;3.45;;;4.00;99.90;;;;;;5028827;28;20053;-78
2024/01/26 02:15:03;;;;;;;19.98;6.35;;;3.90;99.90;;;;;;5010541;28;20090;-79
2024/01/26 02:17:33;;;;;;;19.88;5.88;;;3.90;99.90;;;;;;5010283;28;20033;-78
2024/01/26 02:19:59;;;;;;;18.15;5.38;;;3.90;99.90;;;;;;5010769;28;20105;-78
2024/01/26 02:22:25;;;;;;;23.80;6.28;;;3.80;99.90;;;;;;5010765;28;20022;-78
2024/01/26 02:24:51;;;;;;;;;;;3.80;99.90;;;;;;5028339;28;20022;-78
2024/01/26 02:27:18;;;;;;;20.73;6.13;;;3.70;99.90;;;;;;5026727;28;19965;-77
2024/01/26 02:29:44;;;;;;;11.27;2.95;;;3.70;99.90;;;;;;5013968;28;20064;-78
2024/01/26 02:32:10;;;;;;;;;;;3.70;99.90;;;;;;5032720;28;20002;-78
2024/01/26 02:34:36;;;;;;;23.80;4.50;;;3.80;99.90;;;;;;5009182;28;19912;-77
2024/01/26 02:37:02;;;;;;;;;;;3.90;99.90;;;;;;5027218;28;20284;-78
2024/01/26 02:39:28;;;;;;;13.05;2.08;;;3.80;99.90;;;;;;5026601;28;20535;-78
2024/01/26 02:41:55;;;;;;;20.30;5.07;;;3.80;99.90;;;;;;5008530;28;20026;-78
2024/01/26 02:44:21;;;;;;;19.17;6.18;;;3.80;99.90;;;;;;5026180;28;20037;-78
2024/01/26 02:46:47;;;;;;;;;;;4.00;99.90;;;;;;5010482;28;20034;-79
2024/01/26 02:49:12;;;;;;;14.68;3.85;;;3.80;99.90;;;;;;5027118;28;19993;-78
2024/01/26 02:51:38;;;;;;;;;;;3.80;99.90;;;;;;5026872;28;20025;-78
2024/01/26 02:54:04;;;;;;;15.93;4.00;;;3.80;99.90;;;;;;5007293;28;19940;-77
2024/01/26 02:56:29;;;;;;;;;;;3.80;99.90;;;;;;5021770;28;20006;-79
2024/01/26 02:58:55;;;;;;;19.77;4.90;;;3.90;99.90;;;;;;5039696;28;19909;-78
2024/01/26 03:01:20;;;;;;;;;;;3.70;99.90;;;;;;5033426;28;20072;-77
2024/01/26 03:03:46;;;;;;;8.25;2.47;;;3.80;99.90;;;;;;5028296;28;19992;-77
2024/01/26 03:06:14;;;;;;;;;;;3.90;99.90;;;;;;5030522;28;20038;-78
2024/01/26 03:08:40;;;;;;;13.65;3.50;;;3.80;99.90;;;;;;5027482;28;19913;-77
2024/01/26 03:11:06;;;;;;;;;;;3.90;99.90;;;;;;5004936;28;20034;-78
2024/01/26 03:13:31;;;;;;;8.63;2.38;;;4.00;99.90;;;;;;5022141;28;19906;-78
2024/01/26 03:15:57;;;;;;;;;;;4.00;99.90;;;;;;5009792;28;20022;-78
2024/01/26 03:18:22;;;;;;;11.32;2.40;;;4.10;99.90;;;;;;5023945;28;20413;-77
2024/01/26 03:20:48;;;;;;;;;;;4.10;99.90;;;;;;5024734;28;20022;-78
2024/01/26 03:23:14;;;;;;;11.80;2.70;;;4.10;99.90;;;;;;5025522;28;19948;-78
2024/01/26 03:25:40;;;;;;;;;;;4.20;99.90;;;;;;5007566;28;20490;-78
2024/01/26 03:28:06;;;;;;;14.35;3.00;;;4.20;99.90;;;;;;5025418;28;19910;-76
2024/01/26 03:30:35;;;;;;;9.32;1.88;;;4.10;99.90;;;;;;5006987;28;20109;-77
2024/01/26 03:33:01;;;;;;;11.18;2.72;;;4.10;99.90;;;;;;5005913;28;20069;-77
2024/01/26 03:35:27;;;;;;;;;;;4.10;99.90;;;;;;5006636;28;20034;-77
2024/01/26 03:37:53;;;;;;;7.43;1.77;;;4.10;99.90;;;;;;5004579;28;19925;-78
2024/01/26 03:40:18;;;;;;;;;;;4.10;99.90;;;;;;5027760;28;20355;-78
2024/01/26 03:42:44;;;;;;;9.98;1.48;;;4.10;99.90;;;;;;5027912;28;20370;-78
2024/01/26 03:45:10;;;;;;;;;;;4.00;99.90;;;;;;5006835;28;20037;-78
2024/01/26 03:47:35;;;;;;;11.38;1.88;;;3.90;99.90;;;;;;5018659;28;20293;-77
2024/01/26 03:50:01;;;;;;;;;;;3.90;99.90;;;;;;5029340;28;20109;-77
2024/01/26 03:52:27;;;;;;;11.93;1.70;;;3.90;99.90;;;;;;5010129;28;19912;-77
2024/01/26 03:54:53;;;;;;;;;;;4.00;99.90;;;;;;5009103;28;20065;-78
2024/01/26 03:57:18;;;;;;;6.95;1.50;;;3.90;99.90;;;;;;5007666;28;20421;-78
2024/01/26 03:59:44;;;;;;;;;;;3.70;99.90;;;;;;5030641;28;20019;-77
2024/01/26 04:02:10;;;;;;;9.38;1.88;;;3.80;99.90;;;;;;5014331;28;19910;-78
2024/01/26 04:04:36;;;;;;;;;;;3.70;99.90;;;;;;5014056;28;20395;-78
2024/01/26 04:07:02;;;;;;;16.10;3.20;;;3.70;99.90;;;;;;5030061;28;19972;-78
2024/01/26 04:09:28;;;;;;;;;;;3.60;99.90;;;;;;5014072;28;20633;-78
2024/01/26 04:11:53;;;;;;;10.10;2.40;;;3.60;99.90;;;;;;5014051;28;19973;-78
2024/01/26 04:14:19;;;;;;;;;;;3.50;99.90;;;;;;5013519;28;20518;-78
2024/01/26 04:16:44;;;;;;;11.75;3.60;;;3.50;99.90;;;;;;5029700;28;19920;-78
2024/01/26 04:19:10;;;;;;;;;;;3.50;99.90;;;;;;5013171;28;20036;-78
2024/01/26 04:21:36;;;;;;;13.18;2.95;;;3.50;99.90;;;;;;5029715;28;20378;-78
2024/01/26 04:24:01;;;;;;;;;;;3.60;99.90;;;;;;5012209;28;20097;-78
2024/01/26 04:26:27;;;;;;;15.05;2.03;;;3.50;99.90;;;;;;5010828;28;19913;-80
2024/01/26 04:28:53;;;;;;;7.45;1.73;;;3.40;99.90;;;;;;5002483;28;20030;-77
2024/01/26 04:31:22;;;;;;;;;;;3.40;99.90;;;;;;5014277;28;20028;-78
2024/01/26 04:33:48;;;;;;;11.10;3.22;;;3.30;99.90;;;;;;5021065;28;20009;-77
2024/01/26 04:36:13;;;;;;;;;;;3.30;99.90;;;;;;5025086;28;20124;-78
2024/01/26 04:38:39;;;;;;;13.63;3.88;;;3.30;99.90;;;;;;5023843;28;19913;-78
2024/01/26 04:41:04;;;;;;;;;;;3.40;99.90;;;;;;5024070;28;20022;-77
2024/01/26 04:43:30;;;;;;;10.20;2.70;;;3.30;99.90;;;;;;5005968;28;19924;-76
2024/01/26 04:45:56;;;;;;;;;;;3.40;99.90;;;;;;5024729;28;20045;-78
2024/01/26 04:48:21;;;;;;;10.82;3.05;;;3.40;99.90;;;;;;5005338;28;20473;-78
2024/01/26 04:50:47;;;;;;;;;;;3.40;99.90;;;;;;5026555;28;20034;-78
2024/01/26 04:53:13;;;;;;;7.63;1.60;;;3.40;99.90;;;;;;5008338;28;19973;-78
2024/01/26 04:55:38;;;;;;;;;;;3.40;99.90;;;;;;5004934;28;20053;-77
2024/01/26 04:58:04;;;;;;;8.82;1.45;;;3.50;99.90;;;;;;5003883;28;20451;-77
2024/01/26 05:00:30;;;;;;;;;;;3.50;99.90;;;;;;5021373;28;20018;-78
2024/01/26 05:02:55;;;;;;;5.40;0.80;;;3.60;99.90;;;;;;5006583;28;19925;-78
2024/01/26 05:05:21;;;;;;;;;;;3.60;99.90;;;;;;5001218;28;20037;-78
2024/01/26 05:07:47;;;;;;;5.20;1.30;;;3.60;99.90;;;;;;4983614;28;19913;-77
2024/01/26 05:10:13;;;;;;;;;;;3.60;99.90;;;;;;5001071;28;20033;-77
2024/01/26 05:12:38;;;;;;;6.05;1.10;;;3.70;99.90;;;;;;4983477;28;20298;-78
2024/01/26 05:15:05;;;;;;;;;;;3.70;99.90;;;;;;4982678;28;20030;-77
2024/01/26 05:17:31;;;;;;;8.00;1.63;;;3.70;99.90;;;;;;4983453;28;19922;-78
2024/01/26 05:19:56;;;;;;;;;;;3.70;99.90;;;;;;5001179;28;20565;-78
2024/01/26 05:22:22;;;;;;;7.85;1.92;;;3.60;99.90;;;;;;5000824;28;19909;-77
2024/01/26 05:24:48;;;;;;;;;;;3.50;99.90;;;;;;4983600;28;20031;-78
2024/01/26 05:27:13;;;;;;;15.68;4.03;;;3.50;99.90;;;;;;4983771;28;19905;-77
2024/01/26 05:29:39;;;;;;;;;;;3.50;99.90;;;;;;4987565;28;20605;-78
2024/01/26 05:32:05;;;;;;;8.27;2.65;;;3.50;99.90;;;;;;4982588;28;19917;-77
2024/01/26 05:34:31;;;;;;;36.78;16.42;;;3.30;99.90;;;;;;5013907;28;20041;-77
2024/01/26 05:36:57;;;;;;;;;;;3.30;99.90;;;;;;5020267;28;20037;-78
2024/01/26 05:39:22;;;;;;;31.85;15.52;;;3.30;99.90;;;;;;5020942;28;19921;-77
2024/01/26 05:41:48;;;;;;;;;;;3.30;99.90;;;;;;5002203;28;20025;-77
2024/01/26 05:44:13;;;;;;;21.63;6.18;;;3.20;99.90;;;;;;5003054;28;19909;-78
2024/01/26 05:46:39;;;;;;;;;;;3.10;99.90;;;;;;5020609;28;20054;-78
2024/01/26 05:49:05;;;;;;;12.23;3.78;;;3.10;99.90;;;;;;5020215;28;19905;-77
2024/01/26 05:51:30;;;;;;;;;;;3.00;99.90;;;;;;5003565;28;20615;-77
2024/01/26 05:53:56;;;;;;;6.45;1.58;;;3.00;99.90;;;;;;5003163;28;19909;-77
2024/01/26 05:56:22;;;;;;;;;;;3.00;99.90;;;;;;5003437;28;20384;-77
2024/01/26 05:58:48;;;;;;;10.05;1.73;;;3.00;99.90;;;;;;5019535;28;20000;-78
2024/01/26 06:01:14;;;;;;;6.25;1.40;;;3.00;99.90;;;;;;5019819;28;20030;-78
2024/01/26 06:03:39;;;;;;;;;;;2.90;99.90;;;;;;5017201;28;20187;-77
2024/01/26 06:06:05;;;;;;;8.32;1.17;;;2.90;99.90;;;;;;5014340;28;20301;-77
2024/01/26 06:08:31;;;;;;;;;;;2.80;99.90;;;;;;5020397;28;20490;-76
2024/01/26 06:10:57;;;;;;;4.13;1.08;;;2.70;99.90;;;;;;5020039;28;20008;-77
2024/01/26 06:13:23;;;;;;;5.47;1.00;;;2.70;99.90;;;;;;5037724;28;20033;-78
2024/01/26 06:15:52;;;;;;;9.73;1.50;;;2.70;99.90;;;;;;5044628;28;20022;-78
2024/01/26 06:18:18;;;;;;;8.02;0.90;;;2.70;99.90;;;;;;5011825;28;20030;-77
2024/01/26 06:20:43;;;;;;;;;;;2.70;99.90;;;;;;5044502;28;20036;-78
2024/01/26 06:23:09;;;;;;;8.88;1.63;;;2.70;99.90;;;;;;5044663;28;19905;-77
2024/01/26 06:25:34;;;;;;;;;;;2.60;99.90;;;;;;5045267;28;20026;-77
2024/01/26 06:28:00;;;;;;;7.15;3.70;;;2.60;99.90;;;;;;5018971;28;19922;-78
2024/01/26 06:30:26;;;;;;;;;;;2.80;99.90;;;;;;5028918;28;20025;-78
2024/01/26 06:32:51;;;;;;;3.67;1.10;;;2.60;99.90;;;;;;5028569;28;19913;-78
2024/01/26 06:35:17;;;;;;;;;;;2.70;99.90;;;;;;5046142;28;20121;-78
2024/01/26 06:37:43;;;;;;;12.27;1.38;;;2.70;99.90;;;;;;5030067;28;19919;-77
2024/01/26 06:40:10;;;;;;;7.50;1.00;;;2.70;99.90;;;;;;5038544;28;20022;-78
2024/01/26 06:42:40;;;;;;;7.35;1.08;;;2.70;99.90;;;;;;5021273;28;20030;-79
2024/01/26 06:45:09;;;;;;;8.32;1.45;;;2.70;99.90;;;;;;5014589;28;20076;-78
2024/01/26 06:47:35;;;;;;;7.45;1.00;;;2.70;99.90;;;;;;5029172;28;20052;-77
2024/01/26 06:50:00;;;;;;;;;;;2.80;99.90;;;;;;5030980;28;20057;-78
2024/01/26 06:52:26;;;;;;;6.85;1.27;;;2.80;99.90;;;;;;5030426;28;19923;-78
2024/01/26 06:54:52;;;;;;;;;;;2.80;99.90;;;;;;5048453;28;20025;-77
2024/01/26 06:57:17;;;;;;;4.65;0.95;;;3.10;99.90;;;;;;5030324;28;19913;-78
2024/01/26 06:59:43;;;;;;;;;;;3.00;99.90;;;;;;5031547;28;20052;-78
2024/01/26 07:22:27;;;;;;;5.53;1.20;;;6.40;99.90;;;;;;5417632;23;20056;-80
2024/01/26 07:24:53;;;;;;;;;;;6.80;99.90;;;;;;5042175;28;20101;-79
2024/01/26 07:27:45;;;;;;;2.58;0.50;;;7.20;98.80;;;;;;5058114;28;19889;-79
2024/01/26 07:30:27;;;;;;;3.33;0.70;;;7.40;97.00;;;;;;5042026;28;20034;-79
2024/01/26 07:32:56;;;;;;;2.63;0.70;;;7.40;95.70;;;;;;5010247;28;20013;-79
2024/01/26 07:35:25;;;;;;;7.88;3.05;;;6.70;95.70;;;;;;5026329;28;20292;-78
2024/01/26 07:56:01;;;;;;;4.30;1.02;;;8.70;90.60;;;;;;5404171;23;20057;-80
2024/01/26 08:03:42;;;;;;;7.22;2.58;;;9.30;82.10;;;;;;5980488;23;20053;-78
2024/01/26 08:06:09;;;;;;;10.18;3.40;;;9.30;79.10;;;;;;5039395;28;20080;-78
2024/01/26 08:08:36;;;;;;;8.85;3.05;;;9.50;79.00;;;;;;5055430;28;20034;-79
2024/01/26 08:11:02;;;;;;;5.88;2.38;;;9.80;77.70;;;;;;5056303;28;20021;-77
2024/01/26 08:13:43;;;;;;;5.63;1.92;;;10.10;76.80;;;;;;5039684;28;20025;-78
2024/01/26 08:16:43;;;;;;;7.93;3.38;;;10.40;75.60;;;;;;5036517;28;20057;-78
2024/01/26 08:19:21;;;;;;;3.75;1.17;;;10.30;71.40;;;;;;5054670;28;20044;-79
2024/01/26 08:21:47;;;;;;;4.07;1.85;;;11.40;71.60;;;;;;5037221;28;20013;-78
2024/01/26 08:24:12;;;;;;;;;;;11.70;70.20;;;;;;5054325;28;20056;-79
2024/01/26 08:26:40;;;;;;;3.65;0.80;;;11.90;67.40;;;;;;5037605;28;19972;-78
2024/01/26 08:29:07;;;;;;;3.58;0.70;;;11.60;65.80;;;;;;5054972;28;20029;-78
2024/01/26 08:31:34;;;;;;;2.50;0.73;;;12.00;64.90;;;;;;5037231;28;20014;-78
2024/01/26 08:34:00;;;;;;;9.20;3.13;;;12.00;65.10;;;;;;5037176;28;20088;-78
2024/01/26 08:36:28;;;;;;;3.50;1.23;;;12.00;62.60;;;;;;5054912;28;20037;-78
2024/01/26 08:38:56;;;;;;;3.05;0.98;;;11.70;62.10;;;;;;5035806;28;20030;-79
2024/01/26 08:41:23;;;;;;;4.40;1.30;;;11.60;61.90;;;;;;5036966;28;20022;-78
2024/01/26 08:43:57;;;;;;;5.30;1.80;;;12.40;61.30;;;;;;5054677;28;20053;-78
2024/01/26 08:46:43;;;;;;;5.40;1.70;;;12.60;59.80;;;;;;5052831;28;20517;-78
2024/01/26 08:49:09;;;;;;;;;;;12.30;58.50;;;;;;5020634;28;20053;-79
2024/01/26 08:51:36;;;;;;;5.20;2.10;;;12.00;58.30;;;;;;5035838;28;19912;-78
2024/01/26 08:54:05;;;;;;;4.18;1.42;;;11.50;59.80;;;;;;5035758;28;20047;-77
2024/01/26 08:56:31;;;;;;;5.18;1.63;;;11.00;60.30;;;;;;5033893;28;20029;-78
2024/01/26 08:58:57;;;;;;;4.25;1.83;;;10.50;61.90;;;;;;5053690;28;20033;-77
2024/01/26 09:01:24;;;;;;;;;;;10.30;63.20;;;;;;5037492;28;20041;-78
2024/01/26 09:03:53;;;;;;;5.38;1.35;;;9.90;63.50;;;;;;5018427;28;19921;-77
2024/01/26 09:06:18;;;;;;;3.85;0.88;;;9.80;64.10;;;;;;5020307;28;20049;-78
2024/01/26 09:08:44;;;;;;;;;;;9.80;63.40;;;;;;5020339;28;20036;-78
2024/01/26 09:11:11;;;;;;;4.25;1.27;;;9.70;64.00;;;;;;5053131;28;19960;-78
2024/01/26 09:13:39;;;;;;;;;;;9.70;64.80;;;;;;5052478;28;20040;-78
2024/01/26 09:16:09;;;;;;;2.50;0.82;;;9.80;65.70;;;;;;5033874;28;19920;-78
2024/01/26 09:18:38;;;;;;;4.90;1.20;;;9.40;65.80;;;;;;5033739;28;20044;-77
2024/01/26 09:21:12;;;;;;;3.05;1.13;;;9.30;66.30;;;;;;5033174;28;20112;-78
2024/01/26 09:23:39;;;;;;;2.33;0.60;;;9.30;65.80;;;;;;5029482;28;20021;-77
2024/01/26 09:26:05;;;;;;;2.80;1.20;;;9.30;65.70;;;;;;5036081;28;20029;-78
2024/01/26 09:28:30;;;;;;;;;;;9.20;65.40;;;;;;5036103;28;20045;-78
2024/01/26 09:31:45;;;;;;;4.97;1.25;;;9.20;66.00;;;;;;5036919;28;19943;-78
2024/01/26 09:34:32;;;;;;;4.00;1.30;;;9.30;65.20;;;;;;5045092;28;20033;-79
2024/01/26 09:37:04;;;;;;;2.38;0.88;;;9.30;65.30;;;;;;5055283;28;20030;-78
2024/01/26 09:39:32;;;;;;;3.30;1.05;;;9.40;64.00;;;;;;5057281;28;20030;-78
2024/01/26 09:42:03;;;;;;;4.93;1.65;;;9.40;64.40;;;;;;5036201;28;20029;-78
2024/01/26 09:44:34;;;;;;;8.32;1.95;;;9.40;63.80;;;;;;5056082;28;20034;-79
2024/01/26 09:47:10;;;;;;;3.08;0.80;;;9.40;64.90;;;;;;5055153;28;20017;-80
2024/01/26 09:49:40;;;;;;;1.90;0.68;;;9.40;64.00;;;;;;5056012;28;20005;-79
2024/01/26 09:52:09;;;;;;;3.05;0.70;;;9.30;64.00;;;;;;5038905;28;20018;-78
2024/01/26 09:57:20;;;;;;;2.83;0.70;;;9.40;63.60;;;;;;5361356;23;20057;-79
2024/01/26 10:38:38;;;;;;;6.95;2.10;;;9.00;63.80;;;;;;4827296;26;20049;-78
2024/01/26 10:41:05;;;;;;;3.55;0.70;;;9.10;66.50;;;;;;5022890;28;20056;-79
2024/01/26 10:43:40;;;;;;;3.38;0.70;;;9.20;66.30;;;;;;5039883;28;20017;-78
2024/01/26 10:46:08;;;;;;;1.83;0.43;;;9.10;66.80;;;;;;5040074;28;20025;-78
2024/01/26 10:48:57;;;;;;;2.33;0.40;;;9.20;66.80;;;;;;5058010;28;20026;-78
2024/01/26 10:52:19;;;;;;;0.98;0.30;;;9.10;66.20;;;;;;5040480;28;20537;-79
2024/01/26 10:55:06;;;;;;;2.78;0.50;;;9.20;66.10;;;;;;5058394;28;20036;-79
2024/01/26 10:57:32;;;;;;;4.47;0.88;;;9.20;66.10;;;;;;5042034;28;20048;-79
2024/01/26 11:00:04;;;;;;;;;;;9.20;66.70;;;;;;5042676;28;20053;-78
2024/01/26 11:02:34;;;;;;;1.98;0.70;;;9.20;65.70;;;;;;5041950;28;19909;-79
2024/01/26 11:05:09;;;;;;;4.30;0.85;;;9.00;64.50;;;;;;5026605;28;20038;-79
2024/01/26 11:08:02;;;;;;;4.63;0.77;;;9.20;64.70;;;;;;5042152;28;20033;-79
2024/01/26 11:10:30;;;;;;;1.70;0.28;;;9.20;65.50;;;;;;5041664;28;20048;-79
2024/01/26 11:13:05;;;;;;;2.60;0.35;;;9.00;64.90;;;;;;5025298;28;20033;-78
2024/01/26 11:15:32;;;;;;;1.63;0.43;;;9.20;64.80;;;;;;5042116;28;20073;-79
2024/01/26 11:17:58;;;;;;;3.72;0.68;;;9.20;65.80;;;;;;5042200;28;20045;-79
2024/01/26 11:20:30;;;;;;;2.72;0.40;;;9.20;66.20;;;;;;5059962;28;20048;-79
2024/01/26 11:23:08;;;;;;;0.95;0.30;;;9.20;65.70;;;;;;5041779;28;20081;-78
2024/01/26 11:25:43;;;;;;;3.65;0.40;;;9.20;64.80;;;;;;5042081;28;20110;-79
2024/01/26 11:28:17;;;;;;;1.98;0.40;;;9.20;64.90;;;;;;5042516;28;20006;-79
2024/01/26 11:44:39;;;;;;;2.42;0.52;;;9.30;67.40;;;;;;5796280;23;20057;-78
2024/01/26 11:47:10;;;;;;;2.17;0.52;;;9.40;68.10;;;;;;5021532;28;20025;-79
2024/01/26 11:49:38;;;;;;;3.78;0.55;;;9.20;70.60;;;;;;5002857;28;20068;-79
2024/01/26 11:52:06;;;;;;;2.35;0.63;;;9.30;71.30;;;;;;5010007;28;20022;-79
2024/01/26 11:54:34;;;;;;;1.88;0.50;;;9.30;70.80;;;;;;5008548;28;20034;-78
2024/01/26 11:57:02;;;;;;;1.58;0.40;;;9.40;70.80;;;;;;5020370;28;20041;-78
2024/01/26 11:59:31;;;;;;;2.75;0.40;;;9.30;71.80;;;;;;5019247;28;20045;-78
2024/01/26 12:02:00;;;;;;;1.92;0.40;;;9.20;72.30;;;;;;5017315;28;20030;-78
2024/01/26 12:04:27;;;;;;;3.75;0.60;;;9.30;71.00;;;;;;5036721;28;20400;-78
2024/01/26 12:06:54;;;;;;;2.10;0.40;;;9.30;71.70;;;;;;5019781;28;20133;-77
2024/01/26 12:09:20;;;;;;;4.22;0.35;;;9.30;71.90;;;;;;5020048;28;20022;-78
2024/01/26 12:11:50;;;;;;;5.50;0.73;;;9.30;71.60;;;;;;5019040;28;20092;-78
2024/01/26 12:14:17;;;;;;;3.53;1.00;;;9.30;70.50;;;;;;5018682;28;20105;-79
2024/01/26 12:16:44;;;;;;;3.65;0.70;;;9.30;70.80;;;;;;5002219;28;20034;-79
2024/01/26 12:19:16;;;;;;;2.00;0.52;;;9.40;71.90;;;;;;5035956;28;20057;-79
2024/01/26 12:22:06;;;;;;;3.58;0.63;;;9.40;71.80;;;;;;5018967;28;20082;-78
2024/01/26 12:24:40;;;;;;;2.83;0.90;;;9.40;71.70;;;;;;5035869;28;20022;-78
2024/01/26 12:27:21;;;;;;;4.10;0.90;;;9.40;71.50;;;;;;5010017;28;20029;-78
2024/01/26 12:29:56;;;;;;;4.88;0.75;;;9.40;72.50;;;;;;5002709;28;20038;-79
2024/01/26 12:32:29;;;;;;;16.30;6.68;;;9.20;72.20;;;;;;5019127;28;20615;-78
2024/01/26 12:35:24;;;;;;;4.10;0.93;;;9.40;71.00;;;;;;5020146;28;20018;-79
2024/01/26 12:37:57;;;;;;;1.98;0.70;;;9.40;71.40;;;;;;4986623;28;20051;-78
2024/01/26 12:40:35;;;;;;;4.30;0.70;;;9.60;73.60;;;;;;5002246;28;20045;-78
2024/01/26 12:43:27;;;;;;;3.95;1.08;;;9.30;74.80;;;;;;4999648;28;20033;-78
2024/01/26 12:52:44;;;;;;;5.20;0.70;;;9.20;77.60;;;;;;4999526;28;20209;-79
2024/01/26 12:55:11;;;;;;;3.72;0.98;;;8.70;76.50;;;;;;5016440;28;20053;-79
2024/01/26 12:57:40;;;;;;;5.00;1.15;;;9.10;75.50;;;;;;5018293;28;20550;-79
2024/01/26 13:00:09;;;;;;;4.45;0.98;;;9.00;76.10;;;;;;5017443;28;20035;-80
2024/01/26 13:02:45;;;;;;;5.20;1.50;;;9.00;76.70;;;;;;5017597;28;20013;-78
2024/01/26 13:05:12;;;;;;;8.27;1.80;;;9.10;77.30;;;;;;5016633;28;20034;-78
2024/01/26 13:07:42;;;;;;;6.43;1.33;;;9.00;75.70;;;;;;5016599;28;20090;-79
2024/01/26 13:10:13;;;;;;;4.80;1.10;;;8.30;75.70;;;;;;5017317;28;20034;-80
2024/01/26 13:13:28;;;;;;;5.45;1.05;;;8.90;76.60;;;;;;5007948;28;20049;-79
2024/01/26 13:16:25;;;;;;;5.28;0.80;;;8.90;77.10;;;;;;5017376;28;20038;-79
2024/01/26 13:18:53;;;;;;;3.63;0.80;;;9.00;76.60;;;;;;5015528;28;20052;-79
2024/01/26 13:21:21;;;;;;;2.65;0.80;;;8.90;76.60;;;;;;5000813;28;20086;-79
2024/01/26 13:23:54;;;;;;;3.15;0.80;;;8.80;76.20;;;;;;5016380;28;20095;-79
2024/01/26 13:26:26;;;;;;;7.68;1.70;;;8.90;75.40;;;;;;5018170;28;20014;-79
2024/01/26 13:28:53;;;;;;;3.88;0.93;;;8.80;76.00;;;;;;5017472;28;20013;-79
2024/01/26 13:31:23;;;;;;;5.32;0.98;;;8.80;76.70;;;;;;5033991;28;20087;-79
2024/01/26 13:34:58;;;;;;;4.72;0.70;;;8.60;76.60;;;;;;5017905;28;20018;-79
2024/01/26 13:37:45;;;;;;;4.47;0.85;;;8.70;75.60;;;;;;5014877;28;20076;-79
2024/01/26 13:40:43;;;;;;;7.57;0.90;;;8.80;75.80;;;;;;5017009;28;20058;-78
2024/01/26 13:43:44;;;;;;;8.05;0.85;;;8.80;75.00;;;;;;4983396;28;20043;-80
2024/01/26 13:46:32;;;;;;;3.70;0.88;;;8.50;74.80;;;;;;5025122;28;20050;-80
2024/01/26 13:49:55;;;;;;;3.97;1.33;;;8.70;74.40;;;;;;5013857;28;20021;-79
2024/01/26 13:52:47;;;;;;;7.60;1.63;;;8.50;74.70;;;;;;5037245;28;20102;-79
2024/01/26 13:55:44;;;;;;;4.90;0.88;;;8.50;76.40;;;;;;5024450;28;20038;-79
2024/01/26 13:58:52;;;;;;;7.50;1.58;;;8.50;76.70;;;;;;5018130;28;20022;-78
2024/01/26 14:16:54;;;;;;;5.82;0.75;;;8.20;78.70;;;;;;4858976;26;20046;-78
2024/01/26 14:19:23;;;;;;;8.35;1.45;;;8.10;78.50;;;;;;5007290;28;20037;-78
2024/01/26 14:21:54;;;;;;;4.95;0.95;;;8.00;78.90;;;;;;5004399;28;20034;-79
2024/01/26 14:24:21;;;;;;;9.13;1.33;;;7.90;80.10;;;;;;5035381;28;20006;-77
2024/01/26 14:26:48;;;;;;;5.15;1.42;;;7.80;80.70;;;;;;5019533;28;20034;-78
2024/01/26 14:29:26;;;;;;;4.75;0.98;;;7.80;81.50;;;;;;5019043;28;20032;-78
2024/01/26 14:32:01;;;;;;;7.47;1.20;;;7.70;82.00;;;;;;5018115;28;20045;-78
2024/01/26 14:34:41;;;;;;;9.57;1.08;;;7.60;82.30;;;;;;5019195;28;20049;-78
2024/01/26 14:37:12;;;;;;;4.15;0.93;;;7.60;83.60;;;;;;5018628;28;20105;-78
2024/01/26 14:40:00;;;;;;;12.80;2.28;;;7.40;84.70;;;;;;5035692;28;20057;-79
2024/01/26 14:42:28;;;;;;;6.32;1.92;;;7.40;85.30;;;;;;5017875;28;20044;-78
2024/01/26 14:45:11;;;;;;;5.90;1.60;;;7.20;85.00;;;;;;5014756;28;20034;-77
2024/01/26 14:48:00;;;;;;;9.70;1.70;;;7.30;85.80;;;;;;5036368;28;20026;-78
2024/01/26 14:50:26;;;;;;;8.73;2.15;;;7.10;86.10;;;;;;5022508;28;20041;-79
2024/01/26 14:53:01;;;;;;;;;;;7.20;86.70;;;;;;5023359;28;20216;-78
2024/01/26 14:55:31;;;;;;;8.43;1.83;;;7.00;86.50;;;;;;5008701;28;19982;-78
2024/01/26 14:57:59;;;;;;;10.52;1.35;;;7.70;87.70;;;;;;5017617;28;20041;-78
2024/01/26 15:00:27;;;;;;;8.70;1.58;;;7.00;87.60;;;;;;5018919;28;20034;-79
2024/01/26 15:03:04;;;;;;;5.28;1.60;;;7.60;88.40;;;;;;5021245;28;20026;-79
2024/01/26 15:05:31;;;;;;;10.63;1.48;;;6.10;88.00;;;;;;5018499;28;20034;-79
2024/01/26 15:08:03;;;;;;;7.18;1.40;;;6.60;89.00;;;;;;5022428;28;20022;-78
2024/01/26 15:10:31;;;;;;;7.10;1.90;;;6.50;90.00;;;;;;5039232;28;20065;-78
2024/01/26 15:13:08;;;;;;;8.30;1.65;;;6.40;90.20;;;;;;5005804;28;20029;-78
2024/01/26 15:15:35;;;;;;;5.90;2.20;;;6.30;90.40;;;;;;5038511;28;20065;-78
2024/01/26 15:18:02;;;;;;;9.48;2.30;;;6.30;90.80;;;;;;5021369;28;20056;-78
2024/01/26 15:20:28;;;;;;;6.20;2.10;;;6.20;90.70;;;;;;5038984;28;20060;-78
2024/01/26 15:22:54;;;;;;;;;;;6.30;90.90;;;;;;5037985;28;20042;-78
2024/01/26 15:25:21;;;;;;;6.78;1.75;;;6.10;91.00;;;;;;5022188;28;19909;-78
2024/01/26 15:27:52;;;;;;;12.15;4.85;;;6.00;91.10;;;;;;5039329;28;20028;-79
2024/01/26 15:30:19;;;;;;;13.07;4.90;;;6.00;91.50;;;;;;5038916;28;20060;-78